sensor_id;sensor_type;location;lat;lon;timestamp;temperature;humidity
19947;DHT22;10135;50.702;7.276;2023-08-31T05:01:14;17.10;66.70
19947;DHT22;10135;50.702;7.276;2023-08-31T05:03:14;17.10;66.70
19947;DHT22;10135;50.702;7.276;2023-08-31T05:05:15;17.10;66.60
19947;DHT22;10135;50.702;7.276;2023-08-31T05:07:16;17.10;66.60
19947;DHT22;10135;50.702;7.276;2023-08-31T05:09:16;17.10;66.60
19947;DHT22;10135;50.702;7.276;2023-08-31T05:11:19;17.10;66.60
19947;DHT22;10135;50.702;7.276;2023-08-31T05:13:19;17.10;66.60
19947;DHT22;10135;50.702;7.276;2023-08-31T05:15:20;17.10;66.70
19947;DHT22;10135;50.702;7.276;2023-08-31T05:17:21;17.10;66.50
19947;DHT22;10135;50.702;7.276;2023-08-31T05:19:22;17.10;66.50
19947;DHT22;10135;50.702;7.276;2023-08-31T05:21:23;17.10;66.40
19947;DHT22;10135;50.702;7.276;2023-08-31T05:23:23;17.10;66.40
19947;DHT22;10135;50.702;7.276;2023-08-31T05:25:24;17.10;66.40
19947;DHT22;10135;50.702;7.276;2023-08-31T05:27:25;17.10;66.40
19947;DHT22;10135;50.702;7.276;2023-08-31T05:29:25;17.10;66.30
19947;DHT22;10135;50.702;7.276;2023-08-31T05:31:26;17.10;66.30
19947;DHT22;10135;50.702;7.276;2023-08-31T05:33:27;17.10;66.30
19947;DHT22;10135;50.702;7.276;2023-08-31T05:35:30;17.00;66.30
19947;DHT22;10135;50.702;7.276;2023-08-31T05:37:34;17.00;66.30
19947;DHT22;10135;50.702;7.276;2023-08-31T05:39:35;17.00;66.20
19947;DHT22;10135;50.702;7.276;2023-08-31T05:41:36;17.10;66.30
19947;DHT22;10135;50.702;7.276;2023-08-31T05:43:37;17.00;66.30
19947;DHT22;10135;50.702;7.276;2023-08-31T05:45:41;17.00;66.40
19947;DHT22;10135;50.702;7.276;2023-08-31T05:47:42;17.00;66.50
19947;DHT22;10135;50.702;7.276;2023-08-31T05:49:43;17.00;66.40
19947;DHT22;10135;50.702;7.276;2023-08-31T05:51:44;17.10;66.50
19947;DHT22;10135;50.702;7.276;2023-08-31T05:53:44;17.10;66.50
19947;DHT22;10135;50.702;7.276;2023-08-31T05:55:45;17.10;67.20
19947;DHT22;10135;50.702;7.276;2023-08-31T05:57:46;17.10;66.50
19947;DHT22;10135;50.702;7.276;2023-08-31T05:59:47;17.10;66.50
19947;DHT22;10135;50.702;7.276;2023-08-31T06:01:48;17.10;66.50
19947;DHT22;10135;50.702;7.276;2023-08-31T06:03:49;17.20;66.50
19947;DHT22;10135;50.702;7.276;2023-08-31T06:05:50;17.20;66.60
19947;DHT22;10135;50.702;7.276;2023-08-31T06:07:50;17.20;66.70
19947;DHT22;10135;50.702;7.276;2023-08-31T06:09:52;17.30;66.70
19947;DHT22;10135;50.702;7.276;2023-08-31T06:11:53;17.40;66.70
19947;DHT22;10135;50.702;7.276;2023-08-31T06:13:54;17.40;66.70
19947;DHT22;10135;50.702;7.276;2023-08-31T06:15:55;17.50;66.70
19947;DHT22;10135;50.702;7.276;2023-08-31T06:17:56;17.60;66.70
19947;DHT22;10135;50.702;7.276;2023-08-31T06:19:57;17.70;66.60
19947;DHT22;10135;50.702;7.276;2023-08-31T06:21:57;17.80;66.80
19947;DHT22;10135;50.702;7.276;2023-08-31T06:23:58;17.90;66.70
19947;DHT22;10135;50.702;7.276;2023-08-31T06:25:59;18.00;66.70
19947;DHT22;10135;50.702;7.276;2023-08-31T06:27:59;18.20;66.90
19947;DHT22;10135;50.702;7.276;2023-08-31T06:30:00;18.30;66.70
19947;DHT22;10135;50.702;7.276;2023-08-31T06:32:01;18.50;66.50
19947;DHT22;10135;50.702;7.276;2023-08-31T06:34:01;18.60;66.80
19947;DHT22;10135;50.702;7.276;2023-08-31T06:36:03;18.60;66.00
19947;DHT22;10135;50.702;7.276;2023-08-31T06:38:04;18.60;65.70
19947;DHT22;10135;50.702;7.276;2023-08-31T06:40:06;18.70;65.50
19947;DHT22;10135;50.702;7.276;2023-08-31T06:42:08;18.70;65.30
19947;DHT22;10135;50.702;7.276;2023-08-31T06:44:09;18.60;65.20
19947;DHT22;10135;50.702;7.276;2023-08-31T06:46:09;18.60;65.10
19947;DHT22;10135;50.702;7.276;2023-08-31T06:48:10;18.60;65.10
19947;DHT22;10135;50.702;7.276;2023-08-31T06:50:11;18.50;65.10
19947;DHT22;10135;50.702;7.276;2023-08-31T06:52:11;18.50;65.10
19947;DHT22;10135;50.702;7.276;2023-08-31T06:54:12;18.50;65.10
19947;DHT22;10135;50.702;7.276;2023-08-31T06:56:13;18.50;65.10
19947;DHT22;10135;50.702;7.276;2023-08-31T06:58:13;18.40;65.10
19947;DHT22;10135;50.702;7.276;2023-08-31T07:00:14;18.40;65.20
19947;DHT22;10135;50.702;7.276;2023-08-31T07:02:16;18.40;65.20
19947;DHT22;10135;50.702;7.276;2023-08-31T07:04:16;18.40;65.30
19947;DHT22;10135;50.702;7.276;2023-08-31T07:06:17;18.30;65.30
19947;DHT22;10135;50.702;7.276;2023-08-31T07:08:18;18.40;65.50
19947;DHT22;10135;50.702;7.276;2023-08-31T07:10:18;18.40;65.50
19947;DHT22;10135;50.702;7.276;2023-08-31T07:12:19;18.40;65.40
19947;DHT22;10135;50.702;7.276;2023-08-31T07:14:20;18.40;65.40
19947;DHT22;10135;50.702;7.276;2023-08-31T07:16:20;18.40;65.40
19947;DHT22;10135;50.702;7.276;2023-08-31T07:18:21;18.50;65.50
19947;DHT22;10135;50.702;7.276;2023-08-31T07:20:22;18.50;65.50
19947;DHT22;10135;50.702;7.276;2023-08-31T07:22:22;18.50;65.80
19947;DHT22;10135;50.702;7.276;2023-08-31T07:24:23;18.60;65.80
19947;DHT22;10135;50.702;7.276;2023-08-31T07:26:24;18.70;65.70
19947;DHT22;10135;50.702;7.276;2023-08-31T07:28:25;18.80;65.60
19947;DHT22;10135;50.702;7.276;2023-08-31T07:30:26;18.80;65.30
19947;DHT22;10135;50.702;7.276;2023-08-31T07:32:28;18.80;65.30
19947;DHT22;10135;50.702;7.276;2023-08-31T07:34:29;18.90;65.30
19947;DHT22;10135;50.702;7.276;2023-08-31T07:36:31;18.90;65.20
19947;DHT22;10135;50.702;7.276;2023-08-31T07:38:32;18.90;65.00
19947;DHT22;10135;50.702;7.276;2023-08-31T07:40:33;18.90;64.90
19947;DHT22;10135;50.702;7.276;2023-08-31T07:42:35;18.90;64.90
19947;DHT22;10135;50.702;7.276;2023-08-31T07:44:36;18.90;64.80
19947;DHT22;10135;50.702;7.276;2023-08-31T07:46:36;18.90;64.80
19947;DHT22;10135;50.702;7.276;2023-08-31T07:48:37;18.90;64.80
19947;DHT22;10135;50.702;7.276;2023-08-31T07:50:40;18.90;64.90
19947;DHT22;10135;50.702;7.276;2023-08-31T07:52:42;18.90;65.00
19947;DHT22;10135;50.702;7.276;2023-08-31T07:54:42;18.90;65.00
19947;DHT22;10135;50.702;7.276;2023-08-31T07:56:43;18.90;64.90
19947;DHT22;10135;50.702;7.276;2023-08-31T07:58:45;18.90;64.90
19947;DHT22;10135;50.702;7.276;2023-08-31T08:00:46;18.90;65.00
19947;DHT22;10135;50.702;7.276;2023-08-31T08:02:47;18.90;64.90
19947;DHT22;10135;50.702;7.276;2023-08-31T08:04:47;18.90;64.90
19947;DHT22;10135;50.702;7.276;2023-08-31T08:06:49;19.00;64.90
19947;DHT22;10135;50.702;7.276;2023-08-31T08:08:51;19.00;65.00
19947;DHT22;10135;50.702;7.276;2023-08-31T08:10:54;19.00;65.00
19947;DHT22;10135;50.702;7.276;2023-08-31T08:12:55;19.10;64.90
19947;DHT22;10135;50.702;7.276;2023-08-31T08:14:56;19.10;65.00
19947;DHT22;10135;50.702;7.276;2023-08-31T08:16:57;19.20;64.80
19947;DHT22;10135;50.702;7.276;2023-08-31T08:18:57;19.20;64.90
19947;DHT22;10135;50.702;7.276;2023-08-31T08:20:58;19.20;64.80
19947;DHT22;10135;50.702;7.276;2023-08-31T08:22:59;19.20;64.80
19947;DHT22;10135;50.702;7.276;2023-08-31T08:25:00;19.30;64.70
19947;DHT22;10135;50.702;7.276;2023-08-31T08:27:00;19.30;64.60
19947;DHT22;10135;50.702;7.276;2023-08-31T08:29:01;19.30;64.50
19947;DHT22;10135;50.702;7.276;2023-08-31T08:31:03;19.30;64.60
19947;DHT22;10135;50.702;7.276;2023-08-31T08:33:04;19.30;64.60
19947;DHT22;10135;50.702;7.276;2023-08-31T08:35:05;19.30;64.60
19947;DHT22;10135;50.702;7.276;2023-08-31T08:37:06;19.40;64.60
19947;DHT22;10135;50.702;7.276;2023-08-31T08:39:06;19.40;64.50
19947;DHT22;10135;50.702;7.276;2023-08-31T08:41:07;19.40;64.30
19947;DHT22;10135;50.702;7.276;2023-08-31T08:43:09;19.50;64.40
19947;DHT22;10135;50.702;7.276;2023-08-31T08:45:14;19.50;64.30
19947;DHT22;10135;50.702;7.276;2023-08-31T08:47:16;19.50;64.10
19947;DHT22;10135;50.702;7.276;2023-08-31T08:49:21;19.60;64.30
19947;DHT22;10135;50.702;7.276;2023-08-31T08:51:23;19.60;63.80
19947;DHT22;10135;50.702;7.276;2023-08-31T08:53:24;19.70;64.00
19947;DHT22;10135;50.702;7.276;2023-08-31T08:55:25;19.70;63.80
19947;DHT22;10135;50.702;7.276;2023-08-31T08:57:26;19.80;63.80
19947;DHT22;10135;50.702;7.276;2023-08-31T08:59:27;19.80;63.80
19947;DHT22;10135;50.702;7.276;2023-08-31T09:01:28;19.80;63.60
19947;DHT22;10135;50.702;7.276;2023-08-31T09:03:29;19.90;63.60
19947;DHT22;10135;50.702;7.276;2023-08-31T09:05:33;20.00;63.50
19947;DHT22;10135;50.702;7.276;2023-08-31T09:07:37;20.00;63.00
19947;DHT22;10135;50.702;7.276;2023-08-31T09:09:52;20.00;63.70
19947;DHT22;10135;50.702;7.276;2023-08-31T09:11:53;20.00;62.40
19947;DHT22;10135;50.702;7.276;2023-08-31T09:13:59;20.10;63.10
19947;DHT22;10135;50.702;7.276;2023-08-31T09:15:59;20.10;62.60
19947;DHT22;10135;50.702;7.276;2023-08-31T09:18:00;20.10;62.90
19947;DHT22;10135;50.702;7.276;2023-08-31T09:20:02;20.10;62.80
19947;DHT22;10135;50.702;7.276;2023-08-31T09:22:04;20.10;62.80
19947;DHT22;10135;50.702;7.276;2023-08-31T09:24:06;20.20;62.80
19947;DHT22;10135;50.702;7.276;2023-08-31T09:26:11;20.20;62.60
19947;DHT22;10135;50.702;7.276;2023-08-31T09:28:12;20.30;62.50
19947;DHT22;10135;50.702;7.276;2023-08-31T09:30:14;20.30;62.50
19947;DHT22;10135;50.702;7.276;2023-08-31T09:32:18;20.40;62.50
19947;DHT22;10135;50.702;7.276;2023-08-31T09:34:19;20.40;62.10
19947;DHT22;10135;50.702;7.276;2023-08-31T09:36:20;20.50;62.30
19947;DHT22;10135;50.702;7.276;2023-08-31T09:38:22;20.50;62.40
19947;DHT22;10135;50.702;7.276;2023-08-31T09:40:23;20.50;62.10
19947;DHT22;10135;50.702;7.276;2023-08-31T09:42:36;20.60;61.90
19947;DHT22;10135;50.702;7.276;2023-08-31T09:44:43;20.60;61.20
19947;DHT22;10135;50.702;7.276;2023-08-31T09:46:45;20.60;61.50
19947;DHT22;10135;50.702;7.276;2023-08-31T09:48:46;20.70;61.70
19947;DHT22;10135;50.702;7.276;2023-08-31T09:50:48;20.70;61.70
19947;DHT22;10135;50.702;7.276;2023-08-31T09:52:55;20.70;61.60
19947;DHT22;10135;50.702;7.276;2023-08-31T09:54:58;20.70;61.30
19947;DHT22;10135;50.702;7.276;2023-08-31T09:57:02;20.70;61.40
19947;DHT22;10135;50.702;7.276;2023-08-31T09:59:03;20.80;61.30
19947;DHT22;10135;50.702;7.276;2023-08-31T10:01:05;20.80;61.30
19947;DHT22;10135;50.702;7.276;2023-08-31T10:03:07;20.80;61.20
19947;DHT22;10135;50.702;7.276;2023-08-31T10:05:09;20.80;61.20
19947;DHT22;10135;50.702;7.276;2023-08-31T10:07:11;20.90;61.20
19947;DHT22;10135;50.702;7.276;2023-08-31T10:09:13;20.90;61.00
19947;DHT22;10135;50.702;7.276;2023-08-31T10:11:15;20.90;61.10
19947;DHT22;10135;50.702;7.276;2023-08-31T10:13:19;20.90;60.90
19947;DHT22;10135;50.702;7.276;2023-08-31T10:15:22;20.90;60.70
19947;DHT22;10135;50.702;7.276;2023-08-31T10:17:24;20.90;60.80
19947;DHT22;10135;50.702;7.276;2023-08-31T10:19:25;21.00;60.70
19947;DHT22;10135;50.702;7.276;2023-08-31T10:21:26;21.00;60.60
19947;DHT22;10135;50.702;7.276;2023-08-31T10:23:28;21.00;60.60
19947;DHT22;10135;50.702;7.276;2023-08-31T10:27:50;21.10;60.00
19947;DHT22;10135;50.702;7.276;2023-08-31T10:29:51;21.20;60.70
19947;DHT22;10135;50.702;7.276;2023-08-31T10:31:52;21.30;60.60
19947;DHT22;10135;50.702;7.276;2023-08-31T10:34:02;21.30;60.40
19947;DHT22;10135;50.702;7.276;2023-08-31T10:36:15;21.40;59.80
19947;DHT22;10135;50.702;7.276;2023-08-31T10:38:31;21.40;59.50
19947;DHT22;10135;50.702;7.276;2023-08-31T10:40:32;21.50;59.30
19947;DHT22;10135;50.702;7.276;2023-08-31T10:42:40;21.50;59.90
19947;DHT22;10135;50.702;7.276;2023-08-31T10:44:43;21.60;59.80
19947;DHT22;10135;50.702;7.276;2023-08-31T10:46:45;21.60;60.40
19947;DHT22;10135;50.702;7.276;2023-08-31T10:48:53;21.60;59.70
19947;DHT22;10135;50.702;7.276;2023-08-31T10:50:59;21.70;59.10
19947;DHT22;10135;50.702;7.276;2023-08-31T10:53:08;21.70;58.90
19947;DHT22;10135;50.702;7.276;2023-08-31T10:55:09;21.80;58.80
19947;DHT22;10135;50.702;7.276;2023-08-31T10:57:10;21.80;59.30
19947;DHT22;10135;50.702;7.276;2023-08-31T10:59:13;21.80;59.10
19947;DHT22;10135;50.702;7.276;2023-08-31T11:01:14;21.80;59.00
19947;DHT22;10135;50.702;7.276;2023-08-31T11:03:57;21.80;59.00
19947;DHT22;10135;50.702;7.276;2023-08-31T11:05:58;21.80;58.20
19947;DHT22;10135;50.702;7.276;2023-08-31T11:07:58;21.80;58.80
19947;DHT22;10135;50.702;7.276;2023-08-31T11:10:13;21.80;58.70
19947;DHT22;10135;50.702;7.276;2023-08-31T11:12:14;21.70;57.90
19947;DHT22;10135;50.702;7.276;2023-08-31T11:14:50;21.70;58.60
19947;DHT22;10135;50.702;7.276;2023-08-31T11:17:04;21.70;58.10
19947;DHT22;10135;50.702;7.276;2023-08-31T11:19:06;21.70;58.20
19947;DHT22;10135;50.702;7.276;2023-08-31T11:24:31;21.70;58.60
19947;DHT22;10135;50.702;7.276;2023-08-31T11:26:35;21.80;58.40
19947;DHT22;10135;50.702;7.276;2023-08-31T11:28:35;21.70;58.50
19947;DHT22;10135;50.702;7.276;2023-08-31T11:30:36;21.70;58.30
19947;DHT22;10135;50.702;7.276;2023-08-31T11:32:44;21.70;58.30
19947;DHT22;10135;50.702;7.276;2023-08-31T11:34:48;21.70;58.00
19947;DHT22;10135;50.702;7.276;2023-08-31T11:36:49;21.60;58.30
19947;DHT22;10135;50.702;7.276;2023-08-31T11:38:50;21.60;58.30
19947;DHT22;10135;50.702;7.276;2023-08-31T11:40:56;21.60;58.30
19947;DHT22;10135;50.702;7.276;2023-08-31T11:42:58;21.60;58.00
19947;DHT22;10135;50.702;7.276;2023-08-31T11:45:00;21.50;58.30
19947;DHT22;10135;50.702;7.276;2023-08-31T11:47:05;21.50;58.30
19947;DHT22;10135;50.702;7.276;2023-08-31T11:49:07;21.50;58.30
19947;DHT22;10135;50.702;7.276;2023-08-31T11:51:08;21.60;58.50
19947;DHT22;10135;50.702;7.276;2023-08-31T11:53:08;21.60;58.50
19947;DHT22;10135;50.702;7.276;2023-08-31T11:55:11;21.70;58.50
19947;DHT22;10135;50.702;7.276;2023-08-31T11:57:12;21.80;58.40
19947;DHT22;10135;50.702;7.276;2023-08-31T11:59:20;21.90;58.30
19947;DHT22;10135;50.702;7.276;2023-08-31T12:01:21;22.00;57.90
19947;DHT22;10135;50.702;7.276;2023-08-31T12:03:22;22.00;58.10
19947;DHT22;10135;50.702;7.276;2023-08-31T12:05:22;22.00;58.00
19947;DHT22;10135;50.702;7.276;2023-08-31T12:07:23;22.10;57.80
19947;DHT22;10135;50.702;7.276;2023-08-31T12:09:27;22.10;57.70
19947;DHT22;10135;50.702;7.276;2023-08-31T12:11:28;22.10;57.40
19947;DHT22;10135;50.702;7.276;2023-08-31T12:13:29;22.10;57.70
19947;DHT22;10135;50.702;7.276;2023-08-31T12:15:32;22.10;57.70
19947;DHT22;10135;50.702;7.276;2023-08-31T12:17:37;22.00;57.50
19947;DHT22;10135;50.702;7.276;2023-08-31T12:19:39;22.00;57.40
19947;DHT22;10135;50.702;7.276;2023-08-31T12:21:42;22.00;57.60
19947;DHT22;10135;50.702;7.276;2023-08-31T12:23:44;22.00;57.40
19947;DHT22;10135;50.702;7.276;2023-08-31T12:25:49;22.00;57.50
19947;DHT22;10135;50.702;7.276;2023-08-31T12:27:51;22.00;57.20
19947;DHT22;10135;50.702;7.276;2023-08-31T12:29:51;22.00;57.40
19947;DHT22;10135;50.702;7.276;2023-08-31T12:31:52;21.90;57.30
19947;DHT22;10135;50.702;7.276;2023-08-31T12:33:53;21.90;57.30
19947;DHT22;10135;50.702;7.276;2023-08-31T12:35:53;21.80;57.30
19947;DHT22;10135;50.702;7.276;2023-08-31T12:37:54;21.70;57.30
19947;DHT22;10135;50.702;7.276;2023-08-31T12:39:57;21.60;57.40
19947;DHT22;10135;50.702;7.276;2023-08-31T12:41:58;21.50;57.60
19947;DHT22;10135;50.702;7.276;2023-08-31T12:44:00;21.40;57.50
19947;DHT22;10135;50.702;7.276;2023-08-31T12:46:00;21.30;57.60
19947;DHT22;10135;50.702;7.276;2023-08-31T12:48:01;21.20;57.70
19947;DHT22;10135;50.702;7.276;2023-08-31T12:50:02;21.10;57.80
19947;DHT22;10135;50.702;7.276;2023-08-31T12:52:03;21.10;58.00
19947;DHT22;10135;50.702;7.276;2023-08-31T12:54:04;21.00;58.20
19947;DHT22;10135;50.702;7.276;2023-08-31T12:56:05;20.90;58.30
19947;DHT22;10135;50.702;7.276;2023-08-31T12:58:06;20.90;58.70
19947;DHT22;10135;50.702;7.276;2023-08-31T13:00:07;20.90;58.50
19947;DHT22;10135;50.702;7.276;2023-08-31T13:02:12;20.90;58.50
19947;DHT22;10135;50.702;7.276;2023-08-31T13:04:13;21.00;58.50
19947;DHT22;10135;50.702;7.276;2023-08-31T13:06:15;21.00;58.50
19947;DHT22;10135;50.702;7.276;2023-08-31T13:08:19;21.00;58.50
19947;DHT22;10135;50.702;7.276;2023-08-31T13:10:19;21.00;58.50
19947;DHT22;10135;50.702;7.276;2023-08-31T13:12:20;21.10;58.70
19947;DHT22;10135;50.702;7.276;2023-08-31T13:14:21;21.10;58.80
19947;DHT22;10135;50.702;7.276;2023-08-31T13:16:21;21.20;58.80
19947;DHT22;10135;50.702;7.276;2023-08-31T13:18:24;21.20;58.80
19947;DHT22;10135;50.702;7.276;2023-08-31T13:20:26;21.20;58.70
19947;DHT22;10135;50.702;7.276;2023-08-31T13:22:28;21.30;58.70
19947;DHT22;10135;50.702;7.276;2023-08-31T13:24:29;21.20;58.50
19947;DHT22;10135;50.702;7.276;2023-08-31T13:26:29;21.20;58.50
19947;DHT22;10135;50.702;7.276;2023-08-31T13:28:30;21.20;58.50
19947;DHT22;10135;50.702;7.276;2023-08-31T13:30:31;21.20;58.40
19947;DHT22;10135;50.702;7.276;2023-08-31T13:32:35;21.10;58.40
19947;DHT22;10135;50.702;7.276;2023-08-31T13:34:36;21.10;58.40
19947;DHT22;10135;50.702;7.276;2023-08-31T13:36:39;21.10;58.40
19947;DHT22;10135;50.702;7.276;2023-08-31T13:38:41;21.10;58.50
19947;DHT22;10135;50.702;7.276;2023-08-31T13:40:43;21.10;58.60
19947;DHT22;10135;50.702;7.276;2023-08-31T13:42:55;21.00;58.70
19947;DHT22;10135;50.702;7.276;2023-08-31T13:45:01;21.10;59.50
19947;DHT22;10135;50.702;7.276;2023-08-31T13:47:04;21.10;58.90
19947;DHT22;10135;50.702;7.276;2023-08-31T13:49:06;21.20;59.00
19947;DHT22;10135;50.702;7.276;2023-08-31T13:51:07;21.20;58.90
19947;DHT22;10135;50.702;7.276;2023-08-31T13:53:09;21.20;58.90
19947;DHT22;10135;50.702;7.276;2023-08-31T13:55:09;21.30;58.70
19947;DHT22;10135;50.702;7.276;2023-08-31T13:57:10;21.30;58.70
19947;DHT22;10135;50.702;7.276;2023-08-31T13:59:14;21.30;58.70
19947;DHT22;10135;50.702;7.276;2023-08-31T14:01:14;21.30;58.70
19947;DHT22;10135;50.702;7.276;2023-08-31T14:03:15;21.30;58.60
19947;DHT22;10135;50.702;7.276;2023-08-31T14:05:17;21.30;58.60
19947;DHT22;10135;50.702;7.276;2023-08-31T14:07:18;21.30;58.60
19947;DHT22;10135;50.702;7.276;2023-08-31T14:09:18;21.20;58.50
19947;DHT22;10135;50.702;7.276;2023-08-31T14:11:19;21.20;58.50
19947;DHT22;10135;50.702;7.276;2023-08-31T14:13:20;21.20;58.90
19947;DHT22;10135;50.702;7.276;2023-08-31T14:15:21;21.30;58.70
19947;DHT22;10135;50.702;7.276;2023-08-31T14:17:22;21.20;58.70
19947;DHT22;10135;50.702;7.276;2023-08-31T14:19:22;21.20;58.60
19947;DHT22;10135;50.702;7.276;2023-08-31T14:21:23;21.30;58.60
19947;DHT22;10135;50.702;7.276;2023-08-31T14:23:24;21.30;58.70
19947;DHT22;10135;50.702;7.276;2023-08-31T14:25:25;21.30;58.70
19947;DHT22;10135;50.702;7.276;2023-08-31T14:27:26;21.30;58.70
19947;DHT22;10135;50.702;7.276;2023-08-31T14:29:27;21.20;58.80
19947;DHT22;10135;50.702;7.276;2023-08-31T14:31:28;21.20;58.80
19947;DHT22;10135;50.702;7.276;2023-08-31T14:33:28;21.20;58.90
19947;DHT22;10135;50.702;7.276;2023-08-31T14:35:29;21.20;58.90
19947;DHT22;10135;50.702;7.276;2023-08-31T14:37:30;21.20;58.90
19947;DHT22;10135;50.702;7.276;2023-08-31T14:39:31;21.20;59.00
19947;DHT22;10135;50.702;7.276;2023-08-31T14:41:32;21.20;59.00
19947;DHT22;10135;50.702;7.276;2023-08-31T14:43:33;21.20;59.10
19947;DHT22;10135;50.702;7.276;2023-08-31T14:45:34;21.20;59.30
19947;DHT22;10135;50.702;7.276;2023-08-31T14:47:34;21.20;59.30
19947;DHT22;10135;50.702;7.276;2023-08-31T14:49:39;21.10;59.30
19947;DHT22;10135;50.702;7.276;2023-08-31T14:51:40;21.10;59.40
19947;DHT22;10135;50.702;7.276;2023-08-31T14:53:42;21.10;59.40
19947;DHT22;10135;50.702;7.276;2023-08-31T14:55:51;21.00;59.40
19947;DHT22;10135;50.702;7.276;2023-08-31T14:57:52;21.00;59.90
19947;DHT22;10135;50.702;7.276;2023-08-31T14:59:52;20.90;59.60
19947;DHT22;10135;50.702;7.276;2023-08-31T15:01:54;20.90;60.40
19947;DHT22;10135;50.702;7.276;2023-08-31T15:03:54;20.90;59.80
19947;DHT22;10135;50.702;7.276;2023-08-31T15:05:55;20.80;59.80
19947;DHT22;10135;50.702;7.276;2023-08-31T15:07:56;20.80;59.90
19947;DHT22;10135;50.702;7.276;2023-08-31T15:09:56;20.80;60.10
19947;DHT22;10135;50.702;7.276;2023-08-31T15:11:58;20.80;60.20
19947;DHT22;10135;50.702;7.276;2023-08-31T15:13:58;20.70;60.20
19947;DHT22;10135;50.702;7.276;2023-08-31T15:15:59;20.70;60.20
19947;DHT22;10135;50.702;7.276;2023-08-31T15:18:00;20.70;60.30
19947;DHT22;10135;50.702;7.276;2023-08-31T15:20:01;20.70;60.40
19947;DHT22;10135;50.702;7.276;2023-08-31T15:22:02;20.70;60.40
19947;DHT22;10135;50.702;7.276;2023-08-31T15:24:04;20.70;60.60
19947;DHT22;10135;50.702;7.276;2023-08-31T15:26:05;20.80;60.70
19947;DHT22;10135;50.702;7.276;2023-08-31T15:28:06;20.80;60.80
19947;DHT22;10135;50.702;7.276;2023-08-31T15:30:08;20.80;60.80
19947;DHT22;10135;50.702;7.276;2023-08-31T15:32:10;20.80;60.80
19947;DHT22;10135;50.702;7.276;2023-08-31T15:34:10;20.80;60.70
19947;DHT22;10135;50.702;7.276;2023-08-31T15:36:11;20.80;60.70
19947;DHT22;10135;50.702;7.276;2023-08-31T15:38:12;20.80;60.70
19947;DHT22;10135;50.702;7.276;2023-08-31T15:40:12;20.80;60.80
19947;DHT22;10135;50.702;7.276;2023-08-31T15:42:13;20.80;60.90
19947;DHT22;10135;50.702;7.276;2023-08-31T15:44:14;20.80;60.90
19947;DHT22;10135;50.702;7.276;2023-08-31T15:46:15;20.80;60.90
19947;DHT22;10135;50.702;7.276;2023-08-31T15:48:16;20.80;60.90
19947;DHT22;10135;50.702;7.276;2023-08-31T15:50:17;20.80;60.90
19947;DHT22;10135;50.702;7.276;2023-08-31T15:52:18;20.80;60.90
19947;DHT22;10135;50.702;7.276;2023-08-31T15:54:19;20.80;60.90
19947;DHT22;10135;50.702;7.276;2023-08-31T15:56:19;20.80;60.90
19947;DHT22;10135;50.702;7.276;2023-08-31T15:58:20;20.80;60.90
19947;DHT22;10135;50.702;7.276;2023-08-31T16:00:21;20.80;61.80
19947;DHT22;10135;50.702;7.276;2023-08-31T16:02:23;20.80;60.90
19947;DHT22;10135;50.702;7.276;2023-08-31T16:04:23;20.80;61.10
19947;DHT22;10135;50.702;7.276;2023-08-31T16:06:24;20.90;61.10
19947;DHT22;10135;50.702;7.276;2023-08-31T16:08:25;20.90;61.10
19947;DHT22;10135;50.702;7.276;2023-08-31T16:10:26;20.90;61.10
19947;DHT22;10135;50.702;7.276;2023-08-31T16:12:27;20.90;61.30
19947;DHT22;10135;50.702;7.276;2023-08-31T16:14:28;20.90;61.30
19947;DHT22;10135;50.702;7.276;2023-08-31T16:16:29;20.90;61.40
19947;DHT22;10135;50.702;7.276;2023-08-31T16:18:29;20.90;61.50
19947;DHT22;10135;50.702;7.276;2023-08-31T16:20:30;20.90;61.60
19947;DHT22;10135;50.702;7.276;2023-08-31T16:22:31;20.90;61.60
19947;DHT22;10135;50.702;7.276;2023-08-31T16:24:31;20.90;61.70
19947;DHT22;10135;50.702;7.276;2023-08-31T16:26:32;20.90;61.80
19947;DHT22;10135;50.702;7.276;2023-08-31T16:28:33;20.80;61.80
19947;DHT22;10135;50.702;7.276;2023-08-31T16:30:33;20.80;61.70
19947;DHT22;10135;50.702;7.276;2023-08-31T16:32:34;20.90;61.60
19947;DHT22;10135;50.702;7.276;2023-08-31T16:34:35;20.90;61.60
19947;DHT22;10135;50.702;7.276;2023-08-31T16:36:35;20.80;61.60
19947;DHT22;10135;50.702;7.276;2023-08-31T16:38:36;20.90;61.70
19947;DHT22;10135;50.702;7.276;2023-08-31T16:40:36;20.90;61.60
19947;DHT22;10135;50.702;7.276;2023-08-31T16:42:38;20.90;61.40
19947;DHT22;10135;50.702;7.276;2023-08-31T16:44:40;20.80;61.10
19947;DHT22;10135;50.702;7.276;2023-08-31T16:46:41;20.90;61.10
19947;DHT22;10135;50.702;7.276;2023-08-31T16:48:41;20.90;61.00
19947;DHT22;10135;50.702;7.276;2023-08-31T16:50:42;20.90;60.80
19947;DHT22;10135;50.702;7.276;2023-08-31T16:52:43;20.90;60.70
19947;DHT22;10135;50.702;7.276;2023-08-31T16:54:44;20.90;60.60
19947;DHT22;10135;50.702;7.276;2023-08-31T16:56:45;20.90;60.50
19947;DHT22;10135;50.702;7.276;2023-08-31T16:58:48;20.90;60.40
19947;DHT22;10135;50.702;7.276;2023-08-31T17:00:49;20.90;60.30
19947;DHT22;10135;50.702;7.276;2023-08-31T17:02:50;20.90;60.20
19947;DHT22;10135;50.702;7.276;2023-08-31T17:04:51;21.00;60.20
19947;DHT22;10135;50.702;7.276;2023-08-31T17:06:51;21.00;60.20
19947;DHT22;10135;50.702;7.276;2023-08-31T17:08:52;20.90;59.90
19947;DHT22;10135;50.702;7.276;2023-08-31T17:10:53;20.90;59.80
19947;DHT22;10135;50.702;7.276;2023-08-31T17:12:54;20.90;59.80
19947;DHT22;10135;50.702;7.276;2023-08-31T17:14:54;21.00;59.80
19947;DHT22;10135;50.702;7.276;2023-08-31T17:16:55;20.90;59.60
19947;DHT22;10135;50.702;7.276;2023-08-31T17:19:01;20.90;59.60
19947;DHT22;10135;50.702;7.276;2023-08-31T17:21:01;20.90;59.60
19947;DHT22;10135;50.702;7.276;2023-08-31T17:23:04;20.90;59.50
19947;DHT22;10135;50.702;7.276;2023-08-31T17:25:06;20.90;59.50
19947;DHT22;10135;50.702;7.276;2023-08-31T17:27:07;20.90;59.40
19947;DHT22;10135;50.702;7.276;2023-08-31T17:29:08;20.90;59.40
19947;DHT22;10135;50.702;7.276;2023-08-31T17:31:08;20.90;59.30
19947;DHT22;10135;50.702;7.276;2023-08-31T17:33:09;20.90;59.30
19947;DHT22;10135;50.702;7.276;2023-08-31T17:35:09;20.80;59.20
19947;DHT22;10135;50.702;7.276;2023-08-31T17:37:10;20.80;59.20
19947;DHT22;10135;50.702;7.276;2023-08-31T17:39:11;20.80;59.20
19947;DHT22;10135;50.702;7.276;2023-08-31T17:41:12;20.80;59.20
19947;DHT22;10135;50.702;7.276;2023-08-31T17:43:13;20.80;59.10
19947;DHT22;10135;50.702;7.276;2023-08-31T17:45:14;20.80;59.10
19947;DHT22;10135;50.702;7.276;2023-08-31T17:47:14;20.80;59.10
19947;DHT22;10135;50.702;7.276;2023-08-31T17:49:15;20.80;59.00
19947;DHT22;10135;50.702;7.276;2023-08-31T17:51:16;20.80;59.00
19947;DHT22;10135;50.702;7.276;2023-08-31T17:53:16;20.80;59.00
19947;DHT22;10135;50.702;7.276;2023-08-31T17:55:17;20.80;59.00